Terminal Aerodrome Forecast
Issued by NWS

Home | Current Version | Previous Version | Text Only | Print | Product List | Glossary Off
Versions: 1 2 3 4 5 6 7 8 9 10 11 12 13 14 15 16

000
FTUS43 KGRB 291500 AAB
TAFCWA
TAF AMD
KCWA 291547Z 2916/3012 21018G25KT 6SM -RA BKN019 OVC030
      TEMPO 2916/2918 3SM -FZRA BR OVC013
     FM292100 28023G32KT P6SM BKN018
     FM300100 29010KT P6SM SCT050=

USA.gov is the U.S. government's official web portal to all federal, state and local government web resources and services.